Kinetic — CFG7437 — position and weather

sailwx.info

Track history (hours):
 
Tides and Currents Weather Stations Pressure Air Temp Water Temp Dewpoint Dewpoint Depression Visibility Wind Speed Wind Dir Waves Ship Positions

Kinetic

Last reported at 2018-Apr-01 17:16 UTC. Time now 2018-Apr-23 21:26 UTC.
Position N 49°18' W 123°08'.
Warning: this ship's position is 22 days out of date.

Length 15 m; draft 3.2 m.

Type: Pleasure craft. MMSI: 316004479.

Date/timePositionNaut miles runAvg speedWind from/ knotsBaromVisibWave heightAir tempDewpointWater temp
2018-Apr-01 17:16N 49°18' W 123°08'0 0.9
2018-Apr-01 16:54N 49°18' W 123°07'2 4.9
2018-Apr-01 16:28N 49°19' W 123°10'4 8.8
2018-Apr-01 15:59N 49°17' W 123°16'4 8.3
2018-Apr-01 15:30N 49°16' W 123°22'8 8.4
2018-Apr-01 14:33N 49°12' W 123°32'5 0.2
2018-Mar-31 17:37N 49°17' W 123°33'1 5.1
2018-Mar-31 17:29N 49°17' W 123°32'11 0.6
2018-Mar-30 22:03N 49°24' W 123°18'0 8.0
2018-Mar-30 22:00N 49°24' W 123°18'4 8.0
2018-Mar-30 21:30N 49°20' W 123°16'4 7.2
2018-Mar-30 20:58N 49°19' W 123°11'3 6.3
2018-Mar-30 20:30N 49°18' W 123°07'  
Track history (hours):
 
Tides and Currents Weather Stations Pressure Air Temp Water Temp Dewpoint Dewpoint Depression Visibility Wind Speed Wind Dir Waves Ship Positions

Kinetic

Last reported at 2018-Apr-01 17:16 UTC. Time now 2018-Apr-23 21:26 UTC.
Position N 49°18' W 123°08'.
Warning: this ship's position is 22 days out of date.

Length 15 m; draft 3.2 m.

Type: Pleasure craft. MMSI: 316004479.

Date/timePositionNaut miles runAvg speedWind from/ knotsBaromVisibWave heightAir tempDewpointWater temp
2018-Apr-01 17:16N 49°18' W 123°08'0 0.9
2018-Apr-01 16:54N 49°18' W 123°07'2 4.9
2018-Apr-01 16:28N 49°19' W 123°10'4 8.8
2018-Apr-01 15:59N 49°17' W 123°16'4 8.3
2018-Apr-01 15:30N 49°16' W 123°22'8 8.4
2018-Apr-01 14:33N 49°12' W 123°32'5 0.2
2018-Mar-31 17:37N 49°17' W 123°33'1 5.1
2018-Mar-31 17:29N 49°17' W 123°32'11 0.6
2018-Mar-30 22:03N 49°24' W 123°18'0 8.0
2018-Mar-30 22:00N 49°24' W 123°18'4 8.0
2018-Mar-30 21:30N 49°20' W 123°16'4 7.2
2018-Mar-30 20:58N 49°19' W 123°11'3 6.3
2018-Mar-30 20:30N 49°18' W 123°07'  

Dump ship's entire track history